createdAt,value
2023-02-07T00:01:38.364Z,32.00
2023-02-07T00:04:06.611Z,34.10
2023-02-07T00:06:36.597Z,36.20
2023-02-07T00:09:08.886Z,39.70
2023-02-07T00:11:40.611Z,39.80
2023-02-07T00:14:11.205Z,42.50
2023-02-07T00:16:41.523Z,40.40
2023-02-07T00:19:10.021Z,39.20
2023-02-07T00:21:38.350Z,43.70
2023-02-07T00:24:07.705Z,100.80
2023-02-07T00:26:36.126Z,48.60
2023-02-07T00:29:05.086Z,39.60
2023-02-07T00:31:36.398Z,50.80
2023-02-07T00:34:07.284Z,41.70
2023-02-07T00:36:36.521Z,55.90
2023-02-07T00:39:13.424Z,35.00
2023-02-07T00:41:42.459Z,40.10
2023-02-07T00:44:11.413Z,39.20
2023-02-07T00:46:40.181Z,39.20
2023-02-07T00:49:08.258Z,36.50
2023-02-07T00:51:37.351Z,39.10
2023-02-07T00:54:06.429Z,36.10
2023-02-07T00:56:35.068Z,33.50
2023-02-07T00:59:03.906Z,36.80
2023-02-07T01:01:32.112Z,37.10
2023-02-07T01:04:00.344Z,34.20
2023-02-07T01:06:33.537Z,38.30
2023-02-07T01:09:03.504Z,34.50
2023-02-07T01:11:32.124Z,36.20
2023-02-07T01:14:01.732Z,37.60
2023-02-07T01:16:34.158Z,35.50
2023-02-07T01:19:09.094Z,36.50
2023-02-07T01:21:37.833Z,36.00
2023-02-07T01:24:07.806Z,38.20
2023-02-07T01:26:38.672Z,37.50
2023-02-07T01:29:07.388Z,35.50
2023-02-07T01:31:36.316Z,37.40
2023-02-07T01:34:05.745Z,37.90
2023-02-07T01:36:33.934Z,39.20
2023-02-07T01:39:03.872Z,40.90
2023-02-07T01:41:35.562Z,38.40
2023-02-07T01:44:27.738Z,38.40
2023-02-07T01:46:56.877Z,35.60
2023-02-07T01:49:31.140Z,37.40
2023-02-07T01:52:06.118Z,33.80
2023-02-07T01:54:36.501Z,33.50
2023-02-07T01:57:12.572Z,29.80
2023-02-07T01:59:43.978Z,31.10
2023-02-07T02:02:15.368Z,34.10
2023-02-07T02:04:43.322Z,34.50
2023-02-07T02:07:14.114Z,35.00
2023-02-07T02:09:42.097Z,33.10
2023-02-07T02:12:56.883Z,31.60
2023-02-07T02:15:48.076Z,30.50
2023-02-07T02:18:26.197Z,32.90
2023-02-07T02:21:32.960Z,29.30
2023-02-07T02:24:39.404Z,29.80
2023-02-07T02:27:32.375Z,28.60
2023-02-07T02:30:40.940Z,27.50
2023-02-07T02:33:42.417Z,28.40
2023-02-07T02:36:29.979Z,28.80
2023-02-07T02:39:03.576Z,29.30
2023-02-07T02:41:49.356Z,27.80
2023-02-07T02:44:27.802Z,27.20
2023-02-07T02:46:57.980Z,26.60
2023-02-07T02:49:26.659Z,26.40
2023-02-07T02:51:54.741Z,28.90
2023-02-07T02:54:36.542Z,27.60
2023-02-07T02:57:49.651Z,27.40
2023-02-07T03:00:44.066Z,29.70
2023-02-07T03:03:57.568Z,27.10
2023-02-07T03:06:52.592Z,27.70
2023-02-07T03:09:55.194Z,26.70
2023-02-07T03:12:41.652Z,27.30
2023-02-07T03:15:30.654Z,25.70
2023-02-07T03:18:15.420Z,29.00
2023-02-07T03:21:31.553Z,26.80
2023-02-07T03:24:05.081Z,26.70
2023-02-07T03:26:36.703Z,26.00
2023-02-07T03:29:07.597Z,25.90
2023-02-07T03:31:42.755Z,26.50
2023-02-07T03:34:26.202Z,24.60
2023-02-07T03:37:10.565Z,28.20
2023-02-07T03:39:39.505Z,27.40
2023-02-07T03:42:17.040Z,26.00
2023-02-07T03:44:46.755Z,25.80
2023-02-07T03:47:18.199Z,26.60
2023-02-07T03:49:46.320Z,25.00
2023-02-07T03:52:14.217Z,25.10
2023-02-07T03:54:42.261Z,27.90
2023-02-07T03:57:10.378Z,26.80
2023-02-07T03:59:38.715Z,27.10
2023-02-07T04:02:07.004Z,24.60
2023-02-07T04:04:35.281Z,26.90
2023-02-07T04:07:03.600Z,29.20
2023-02-07T04:09:31.706Z,27.60
2023-02-07T04:11:59.770Z,26.50
2023-02-07T04:14:27.884Z,28.10
2023-02-07T04:16:55.856Z,26.30
2023-02-07T04:19:24.185Z,25.40
2023-02-07T04:21:52.235Z,27.70
2023-02-07T04:24:20.208Z,27.20
2023-02-07T04:26:48.228Z,23.80
2023-02-07T04:29:16.623Z,24.20
2023-02-07T04:31:44.668Z,26.00
2023-02-07T04:34:13.142Z,25.80
2023-02-07T04:36:41.159Z,24.30
2023-02-07T04:39:09.098Z,26.30
2023-02-07T04:41:37.074Z,26.60
2023-02-07T04:44:05.248Z,25.20
2023-02-07T04:46:34.204Z,24.30
2023-02-07T04:49:04.025Z,24.80
2023-02-07T04:51:32.577Z,22.40
2023-02-07T04:54:00.542Z,22.20
2023-02-07T04:56:28.525Z,23.20
2023-02-07T04:58:56.651Z,13.10
2023-02-07T05:01:27.428Z,20.30
2023-02-07T05:03:55.447Z,21.90
2023-02-07T05:06:23.569Z,23.20
2023-02-07T05:08:51.544Z,26.40
2023-02-07T05:11:19.935Z,21.90
2023-02-07T05:13:47.914Z,22.30
2023-02-07T05:16:16.152Z,22.70
2023-02-07T05:18:44.760Z,20.30
2023-02-07T05:21:12.702Z,22.40
2023-02-07T05:23:40.698Z,18.60
2023-02-07T05:26:08.832Z,20.20
2023-02-07T05:28:36.841Z,18.80
2023-02-07T05:31:05.122Z,21.20
2023-02-07T05:33:33.123Z,21.80
2023-02-07T05:36:02.858Z,20.30
2023-02-07T05:38:31.092Z,22.10
2023-02-07T05:40:59.869Z,13.60
2023-02-07T05:43:27.887Z,23.30
2023-02-07T05:45:55.957Z,24.80
2023-02-07T05:48:24.056Z,21.70
2023-02-07T05:50:53.312Z,23.80
2023-02-07T05:53:21.463Z,21.70
2023-02-07T05:55:52.529Z,20.00
2023-02-07T05:58:20.450Z,20.40
2023-02-07T06:00:48.991Z,16.10
2023-02-07T06:03:17.239Z,20.20
2023-02-07T06:05:45.252Z,20.70
2023-02-07T06:08:13.408Z,18.40
2023-02-07T06:10:41.430Z,18.60
2023-02-07T06:13:11.594Z,18.30
2023-02-07T06:15:39.898Z,18.80
2023-02-07T06:18:08.185Z,26.20
2023-02-07T06:20:36.253Z,18.70
2023-02-07T06:23:04.320Z,24.10
2023-02-07T06:25:32.396Z,16.50
2023-02-07T06:28:00.937Z,17.80
2023-02-07T06:30:29.146Z,16.10
2023-02-07T06:32:57.201Z,16.40
2023-02-07T06:35:26.411Z,17.00
2023-02-07T06:37:55.254Z,16.40
2023-02-07T06:40:23.458Z,14.80
2023-02-07T06:42:51.499Z,18.60
2023-02-07T06:45:19.616Z,16.60
2023-02-07T06:47:47.565Z,18.10
2023-02-07T06:50:15.851Z,17.00
2023-02-07T06:52:44.632Z,18.70
2023-02-07T06:55:12.589Z,18.50
2023-02-07T06:57:40.606Z,16.30
2023-02-07T07:00:12.275Z,19.70
2023-02-07T07:02:40.248Z,18.20
2023-02-07T07:05:09.312Z,17.90
2023-02-07T07:07:37.307Z,17.90
2023-02-07T07:10:06.801Z,19.20
2023-02-07T07:12:34.849Z,17.80
2023-02-07T07:15:03.147Z,18.60
2023-02-07T07:17:31.097Z,18.70
2023-02-07T07:19:59.810Z,18.30
2023-02-07T07:22:27.756Z,19.60
2023-02-07T07:24:55.996Z,19.60
2023-02-07T07:27:23.921Z,17.90
2023-02-07T07:29:52.173Z,18.60
2023-02-07T07:35:08.428Z,17.30
2023-02-07T07:37:36.611Z,16.90
2023-02-07T07:40:05.531Z,16.90
2023-02-07T07:42:35.326Z,16.60
2023-02-07T07:45:11.008Z,17.10
2023-02-07T07:47:39.964Z,20.20
2023-02-07T07:50:08.437Z,19.30
2023-02-07T07:52:36.513Z,17.10
2023-02-07T07:55:04.954Z,24.80
2023-02-07T07:57:32.975Z,28.30
2023-02-07T08:00:01.028Z,29.00
2023-02-07T08:02:29.331Z,24.80
2023-02-07T08:04:57.315Z,23.70
2023-02-07T08:07:25.330Z,22.10
2023-02-07T08:09:53.270Z,20.00
2023-02-07T08:12:21.447Z,18.00
2023-02-07T08:14:49.516Z,17.40
2023-02-07T08:17:17.702Z,17.30
2023-02-07T08:19:45.630Z,15.20
2023-02-07T08:22:14.625Z,16.00
2023-02-07T08:24:42.735Z,15.20
2023-02-07T08:27:10.833Z,14.50
2023-02-07T08:29:39.100Z,14.10
2023-02-07T08:32:07.184Z,14.90
2023-02-07T08:34:37.748Z,14.40
2023-02-07T08:37:08.502Z,15.70
2023-02-07T08:39:36.666Z,16.00
2023-02-07T08:42:08.050Z,15.70
2023-02-07T08:44:37.273Z,19.30
2023-02-07T08:47:05.423Z,17.70
2023-02-07T08:49:33.579Z,18.00
2023-02-07T08:52:01.700Z,18.40
2023-02-07T08:54:29.806Z,17.20
2023-02-07T08:56:57.789Z,17.70
2023-02-07T08:59:25.942Z,17.80
2023-02-07T09:01:55.065Z,16.60
2023-02-07T09:04:23.164Z,17.30
2023-02-07T09:06:51.136Z,14.60
2023-02-07T09:09:19.396Z,15.50
2023-02-07T09:11:47.516Z,9.50
2023-02-07T09:14:15.557Z,16.30
2023-02-07T09:16:43.600Z,15.30
2023-02-07T09:19:11.754Z,15.00
2023-02-07T09:21:39.803Z,16.20
2023-02-07T09:24:07.921Z,14.50
2023-02-07T09:26:36.337Z,15.40
2023-02-07T09:29:06.144Z,14.10
2023-02-07T09:31:34.931Z,17.20
2023-02-07T09:34:04.864Z,14.10
2023-02-07T09:36:33.168Z,13.60
2023-02-07T09:39:01.838Z,12.70
2023-02-07T09:42:07.448Z,14.30
2023-02-07T09:45:12.363Z,15.70
2023-02-07T09:47:44.102Z,13.00
2023-02-07T09:50:23.078Z,15.60
2023-02-07T09:53:05.616Z,15.50
2023-02-07T09:55:53.004Z,15.40
2023-02-07T09:58:57.671Z,15.90
2023-02-07T10:01:33.515Z,16.90
2023-02-07T10:04:04.521Z,16.40
2023-02-07T10:06:34.912Z,16.00
2023-02-07T10:09:03.358Z,16.30
2023-02-07T10:11:58.442Z,14.50
2023-02-07T10:15:06.723Z,15.00
2023-02-07T10:18:12.244Z,14.60
2023-02-07T10:21:01.675Z,14.70
2023-02-07T10:23:44.933Z,15.60
2023-02-07T10:26:45.232Z,16.60
2023-02-07T10:29:38.304Z,16.80
2023-02-07T10:32:38.512Z,17.50
2023-02-07T10:35:32.088Z,16.70
2023-02-07T10:38:04.437Z,15.90
2023-02-07T10:40:52.713Z,15.80
2023-02-07T10:43:32.601Z,15.20
2023-02-07T10:46:10.298Z,18.40
2023-02-07T10:48:38.924Z,17.90
2023-02-07T10:51:35.717Z,17.30
2023-02-07T10:54:16.362Z,16.80
2023-02-07T10:56:50.432Z,15.50
2023-02-07T10:59:47.522Z,14.80
2023-02-07T11:02:31.815Z,13.00
2023-02-07T11:05:23.636Z,11.10
2023-02-07T11:07:59.898Z,11.70
2023-02-07T11:10:38.799Z,13.10
2023-02-07T11:13:18.313Z,14.40
2023-02-07T11:16:07.782Z,16.50
2023-02-07T11:18:46.761Z,15.70
2023-02-07T11:21:33.653Z,13.50
2023-02-07T11:24:29.272Z,14.80
2023-02-07T11:27:23.772Z,15.00
2023-02-07T11:29:56.550Z,14.40
2023-02-07T11:32:28.709Z,13.40
2023-02-07T11:35:18.999Z,12.90
2023-02-07T11:37:59.988Z,14.60
2023-02-07T11:40:44.756Z,14.40
2023-02-07T11:43:17.269Z,11.90
2023-02-07T11:45:57.628Z,12.20
2023-02-07T11:48:32.730Z,10.90
2023-02-07T11:51:07.848Z,8.90
2023-02-07T11:54:10.339Z,10.60
2023-02-07T11:56:45.943Z,8.50
2023-02-07T11:59:26.640Z,10.80
2023-02-07T12:02:09.354Z,8.40
2023-02-07T12:05:32.240Z,8.70
2023-02-07T12:08:10.357Z,9.80
2023-02-07T12:10:44.580Z,9.50
2023-02-07T12:13:22.665Z,9.70
2023-02-07T12:15:58.382Z,9.30
2023-02-07T12:18:53.549Z,9.70
2023-02-07T12:21:53.545Z,10.10
2023-02-07T12:24:59.849Z,7.50
2023-02-07T12:27:39.390Z,6.70
2023-02-07T12:30:39.394Z,6.60
2023-02-07T12:33:18.582Z,6.60
2023-02-07T12:36:23.581Z,8.40
2023-02-07T12:39:03.869Z,7.50
2023-02-07T12:41:50.451Z,8.00
2023-02-07T12:44:35.997Z,7.00
2023-02-07T12:47:26.354Z,9.00
2023-02-07T12:50:21.702Z,8.40
2023-02-07T12:53:12.639Z,8.50
2023-02-07T12:55:59.859Z,6.50
2023-02-07T12:58:44.136Z,6.60
2023-02-07T13:01:19.543Z,8.00
2023-02-07T13:04:24.172Z,7.60
2023-02-07T13:07:28.377Z,5.70
2023-02-07T13:10:41.816Z,6.60
2023-02-07T13:13:31.017Z,7.40
2023-02-07T13:16:11.880Z,4.50
2023-02-07T13:18:50.985Z,5.60
2023-02-07T13:21:40.881Z,4.30
2023-02-07T13:24:15.560Z,3.10
2023-02-07T13:26:54.436Z,4.20
2023-02-07T13:29:23.829Z,4.20
2023-02-07T13:32:03.610Z,5.10
2023-02-07T13:34:49.806Z,4.40
2023-02-07T13:37:19.273Z,3.10
2023-02-07T13:40:01.602Z,4.70
2023-02-07T13:42:54.858Z,3.40
2023-02-07T13:48:49.728Z,5.90
2023-02-07T13:51:43.943Z,5.40
2023-02-07T13:54:42.808Z,4.90
2023-02-07T13:57:54.665Z,4.60
2023-02-07T14:00:27.861Z,3.90
2023-02-07T14:03:06.615Z,4.20
2023-02-07T14:05:42.103Z,5.00
2023-02-07T14:08:16.559Z,5.00
2023-02-07T14:10:57.503Z,4.10
2023-02-07T14:13:36.266Z,5.00
2023-02-07T14:16:12.624Z,5.10
2023-02-07T14:18:53.440Z,5.70
2023-02-07T14:21:22.773Z,5.80
2023-02-07T14:24:09.274Z,5.50
2023-02-07T14:26:40.121Z,4.50
2023-02-07T14:29:20.335Z,5.30
2023-02-07T14:32:30.912Z,5.60
2023-02-07T14:35:25.565Z,5.30
2023-02-07T14:38:02.380Z,4.90
2023-02-07T14:40:42.146Z,4.60
2023-02-07T14:43:12.744Z,5.20
2023-02-07T14:45:51.951Z,5.40
2023-02-07T14:49:43.191Z,7.40
2023-02-07T14:52:23.894Z,5.80
2023-02-07T14:55:01.033Z,7.10
2023-02-07T14:57:37.787Z,5.80
2023-02-07T15:00:15.188Z,7.20
2023-02-07T15:02:51.402Z,6.70
2023-02-07T15:05:27.924Z,6.70
2023-02-07T15:08:23.706Z,7.80
2023-02-07T15:10:57.777Z,6.60
2023-02-07T15:13:48.675Z,7.40
2023-02-07T15:16:28.468Z,5.60
2023-02-07T15:19:05.595Z,5.40
2023-02-07T15:21:42.122Z,6.40
2023-02-07T15:24:50.526Z,6.90
2023-02-07T15:27:26.774Z,6.40
2023-02-07T15:29:57.803Z,7.00
2023-02-07T15:32:34.250Z,7.50
2023-02-07T15:35:22.202Z,7.60
2023-02-07T15:37:50.745Z,6.70
2023-02-07T15:40:24.928Z,7.20
2023-02-07T15:42:58.701Z,7.60
2023-02-07T15:45:33.027Z,8.10
2023-02-07T15:48:07.713Z,7.20
2023-02-07T15:50:38.028Z,8.00
2023-02-07T15:53:08.685Z,7.60
2023-02-07T15:55:46.742Z,7.60
2023-02-07T15:58:34.738Z,8.50
2023-02-07T16:01:15.937Z,7.60
2023-02-07T16:03:47.363Z,9.50
2023-02-07T16:06:30.880Z,7.70
2023-02-07T16:09:02.106Z,9.00
2023-02-07T16:11:30.550Z,9.10
2023-02-07T16:14:25.610Z,8.40
2023-02-07T16:16:56.911Z,9.80
2023-02-07T16:19:31.089Z,9.90
2023-02-07T16:22:10.900Z,11.40
2023-02-07T16:24:43.493Z,9.20
2023-02-07T16:27:19.446Z,9.00
2023-02-07T16:29:48.149Z,8.90
2023-02-07T16:32:17.013Z,9.30
2023-02-07T16:34:59.024Z,9.60
2023-02-07T16:37:28.818Z,8.80
2023-02-07T16:39:56.984Z,9.20
2023-02-07T16:42:24.982Z,10.00
2023-02-07T16:44:53.748Z,10.70
2023-02-07T16:47:23.390Z,9.80
2023-02-07T16:49:51.526Z,10.30
2023-02-07T16:52:19.689Z,10.60
2023-02-07T16:54:47.758Z,10.30
2023-02-07T16:57:16.860Z,10.80
2023-02-07T16:59:44.973Z,11.50
2023-02-07T17:02:16.554Z,10.50
2023-02-07T17:04:44.883Z,11.90
2023-02-07T17:07:12.956Z,10.20
2023-02-07T17:09:42.872Z,12.40
2023-02-07T17:12:14.384Z,12.10
2023-02-07T17:14:45.074Z,13.20
2023-02-07T17:17:16.059Z,13.60
2023-02-07T17:19:47.424Z,12.50
2023-02-07T17:22:15.390Z,14.10
2023-02-07T17:24:43.457Z,12.30
2023-02-07T17:27:11.517Z,13.10
2023-02-07T17:29:39.695Z,12.80
2023-02-07T17:32:09.602Z,12.40
2023-02-07T17:34:37.582Z,15.90
2023-02-07T17:37:05.739Z,14.90
2023-02-07T17:39:33.728Z,15.80
2023-02-07T17:42:01.657Z,13.70
2023-02-07T17:44:29.918Z,17.60
2023-02-07T17:46:58.144Z,18.50
2023-02-07T17:49:26.056Z,16.20
2023-02-07T17:51:53.998Z,16.20
2023-02-07T17:54:22.142Z,17.60
2023-02-07T17:56:50.090Z,18.30
2023-02-07T17:59:27.388Z,18.20
2023-02-07T18:01:55.396Z,18.60
2023-02-07T18:04:23.413Z,16.70
2023-02-07T18:06:51.528Z,17.80
2023-02-07T18:09:20.398Z,17.10
2023-02-07T18:11:49.476Z,17.70
2023-02-07T18:14:18.008Z,16.60
2023-02-07T18:16:46.079Z,16.90
2023-02-07T18:19:17.323Z,16.50
2023-02-07T18:21:45.403Z,17.90
2023-02-07T18:24:13.845Z,15.70
2023-02-07T18:26:44.543Z,18.00
2023-02-07T18:29:12.537Z,17.50
2023-02-07T18:31:40.591Z,16.90
2023-02-07T18:34:08.600Z,16.10
2023-02-07T18:36:40.287Z,16.90
2023-02-07T18:39:10.466Z,16.40
2023-02-07T18:41:38.669Z,15.80
2023-02-07T18:44:07.666Z,16.90
2023-02-07T18:46:35.774Z,17.90
2023-02-07T18:49:03.906Z,17.20
2023-02-07T18:51:31.960Z,18.10
2023-02-07T18:53:59.949Z,16.60
2023-02-07T18:56:28.027Z,16.30
2023-02-07T18:58:59.189Z,16.60
2023-02-07T19:01:30.272Z,17.60
2023-02-07T19:04:01.520Z,17.80
2023-02-07T19:06:34.051Z,73.80
2023-02-07T19:09:02.266Z,42.40
2023-02-07T19:11:30.256Z,21.00
2023-02-07T19:13:58.872Z,18.60
2023-02-07T19:16:27.860Z,16.80
2023-02-07T19:18:58.514Z,16.80
2023-02-07T19:21:29.742Z,16.60
2023-02-07T19:23:59.045Z,16.50
2023-02-07T19:26:32.555Z,15.50
2023-02-07T19:29:05.131Z,15.80
2023-02-07T19:31:37.602Z,15.10
2023-02-07T19:34:05.930Z,13.40
2023-02-07T19:36:35.677Z,12.20
2023-02-07T19:39:05.113Z,10.80
2023-02-07T19:41:34.505Z,10.00
2023-02-07T19:44:02.685Z,11.30
2023-02-07T19:46:30.894Z,11.40
2023-02-07T19:48:59.162Z,12.40
2023-02-07T19:51:29.410Z,12.30
2023-02-07T19:53:58.638Z,13.80
2023-02-07T19:56:33.185Z,15.10
2023-02-07T19:59:04.875Z,11.30
2023-02-07T20:01:35.456Z,13.90
2023-02-07T20:04:04.394Z,12.90
2023-02-07T20:06:34.659Z,14.00
2023-02-07T20:09:06.214Z,13.70
2023-02-07T20:11:35.029Z,15.40
2023-02-07T20:14:04.000Z,20.80
2023-02-07T20:16:36.773Z,13.50
2023-02-07T20:21:36.990Z,20.80
2023-02-07T20:24:06.117Z,30.40
2023-02-07T20:26:40.536Z,15.70
2023-02-07T20:29:13.178Z,14.90
2023-02-07T20:31:43.154Z,16.00
2023-02-07T20:34:12.229Z,15.70
2023-02-07T20:36:42.341Z,18.80
2023-02-07T20:39:22.465Z,26.90
2023-02-07T20:41:50.980Z,13.80
2023-02-07T20:44:26.594Z,14.80
2023-02-07T20:46:58.086Z,15.30
2023-02-07T20:49:30.277Z,14.70
2023-02-07T20:52:00.300Z,14.70
2023-02-07T20:54:30.824Z,15.00
2023-02-07T20:56:59.057Z,13.90
2023-02-07T20:59:32.661Z,15.10
2023-02-07T21:02:01.948Z,14.70
2023-02-07T21:04:30.297Z,14.50
2023-02-07T21:06:58.510Z,14.60
2023-02-07T21:09:26.751Z,14.20
2023-02-07T21:11:54.976Z,13.20
2023-02-07T21:14:30.154Z,14.60
2023-02-07T21:17:05.871Z,15.10
2023-02-07T21:19:38.749Z,14.30
2023-02-07T21:22:07.662Z,13.20
2023-02-07T21:24:35.912Z,14.90
2023-02-07T21:27:05.143Z,13.40
2023-02-07T21:29:35.239Z,14.40
2023-02-07T21:32:03.338Z,12.80
2023-02-07T21:34:31.443Z,14.00
2023-02-07T21:36:59.392Z,13.00
2023-02-07T21:39:27.346Z,14.50
2023-02-07T21:41:55.614Z,11.60
2023-02-07T21:44:23.536Z,13.50
2023-02-07T21:46:52.192Z,10.90
2023-02-07T21:49:20.908Z,12.80
2023-02-07T21:51:51.149Z,12.10
2023-02-07T21:54:19.542Z,13.00
2023-02-07T21:56:49.684Z,10.60
2023-02-07T21:59:20.352Z,10.70
2023-02-07T22:01:48.559Z,11.00
2023-02-07T22:04:17.734Z,9.30
2023-02-07T22:06:47.972Z,11.30
2023-02-07T22:09:18.801Z,37.80
2023-02-07T22:11:46.937Z,29.40
2023-02-07T22:14:16.227Z,11.60
2023-02-07T22:16:44.357Z,12.10
2023-02-07T22:19:14.403Z,10.20
2023-02-07T22:21:44.204Z,12.00
2023-02-07T22:24:15.004Z,11.90
2023-02-07T22:26:44.119Z,12.20
2023-02-07T22:29:12.295Z,11.60
2023-02-07T22:31:41.951Z,12.70
2023-02-07T22:34:12.877Z,11.30
2023-02-07T22:36:43.655Z,11.10
2023-02-07T22:39:14.667Z,11.30
2023-02-07T22:41:43.094Z,11.20
2023-02-07T22:44:11.380Z,11.40
2023-02-07T22:46:39.555Z,12.20
2023-02-07T22:49:07.543Z,12.60
2023-02-07T22:51:37.638Z,13.00
2023-02-07T22:54:16.928Z,12.20
2023-02-07T22:56:46.202Z,39.50
2023-02-07T22:59:14.486Z,18.30
2023-02-07T23:01:44.326Z,13.10
2023-02-07T23:04:17.581Z,11.90
2023-02-07T23:06:47.023Z,14.60
2023-02-07T23:09:16.320Z,12.10
2023-02-07T23:11:45.372Z,9.80
2023-02-07T23:14:13.638Z,11.10
2023-02-07T23:16:42.167Z,10.70
2023-02-07T23:19:16.470Z,13.00
2023-02-07T23:21:44.533Z,12.20
2023-02-07T23:24:12.600Z,12.30
2023-02-07T23:26:40.739Z,12.30
2023-02-07T23:29:08.966Z,13.10
2023-02-07T23:31:37.217Z,12.90
2023-02-07T23:34:05.314Z,12.00
2023-02-07T23:36:33.283Z,11.70
2023-02-07T23:39:01.395Z,43.50
2023-02-07T23:41:30.034Z,12.50
2023-02-07T23:44:00.200Z,23.60
2023-02-07T23:46:29.772Z,18.30
2023-02-07T23:48:58.689Z,13.60
2023-02-07T23:51:27.170Z,45.70
2023-02-07T23:53:55.240Z,21.40
2023-02-07T23:56:24.083Z,12.50
2023-02-07T23:58:53.281Z,11.60
